sensor_id;sensor_type;location;lat;lon;timestamp;P1;durP1;ratioP1;P2;durP2;ratioP2
68976;SDS011;56029;52.568;13.588;2022-08-19T00:00:13;15.82;;;12.07;;
68976;SDS011;56029;52.568;13.588;2022-08-19T00:02:59;16.50;;;12.90;;
68976;SDS011;56029;52.568;13.588;2022-08-19T00:05:25;16.70;;;12.65;;
68976;SDS011;56029;52.568;13.588;2022-08-19T00:07:50;17.80;;;13.30;;
68976;SDS011;56029;52.568;13.588;2022-08-19T00:10:18;19.15;;;13.18;;
68976;SDS011;56029;52.568;13.588;2022-08-19T00:12:45;18.55;;;13.68;;
68976;SDS011;56029;52.568;13.588;2022-08-19T00:15:12;17.93;;;13.50;;
68976;SDS011;56029;52.568;13.588;2022-08-19T00:17:40;16.67;;;12.95;;
68976;SDS011;56029;52.568;13.588;2022-08-19T00:20:08;18.73;;;13.60;;
68976;SDS011;56029;52.568;13.588;2022-08-19T00:22:36;17.23;;;13.03;;
68976;SDS011;56029;52.568;13.588;2022-08-19T00:25:02;16.70;;;13.25;;
68976;SDS011;56029;52.568;13.588;2022-08-19T00:27:28;17.38;;;13.40;;
68976;SDS011;56029;52.568;13.588;2022-08-19T00:29:57;16.92;;;12.77;;
68976;SDS011;56029;52.568;13.588;2022-08-19T00:32:24;18.00;;;13.88;;
68976;SDS011;56029;52.568;13.588;2022-08-19T00:34:51;17.23;;;13.13;;
68976;SDS011;56029;52.568;13.588;2022-08-19T00:37:18;17.35;;;13.48;;
68976;SDS011;56029;52.568;13.588;2022-08-19T00:39:48;18.65;;;13.93;;
68976;SDS011;56029;52.568;13.588;2022-08-19T00:42:17;17.30;;;13.43;;
68976;SDS011;56029;52.568;13.588;2022-08-19T00:44:45;17.73;;;13.50;;
68976;SDS011;56029;52.568;13.588;2022-08-19T00:47:11;19.17;;;13.60;;
68976;SDS011;56029;52.568;13.588;2022-08-19T00:49:39;19.42;;;14.68;;
68976;SDS011;56029;52.568;13.588;2022-08-19T00:52:14;18.65;;;14.10;;
68976;SDS011;56029;52.568;13.588;2022-08-19T00:54:42;23.45;;;16.63;;
68976;SDS011;56029;52.568;13.588;2022-08-19T00:57:10;22.13;;;15.88;;
68976;SDS011;56029;52.568;13.588;2022-08-19T00:59:39;19.63;;;14.93;;
68976;SDS011;56029;52.568;13.588;2022-08-19T01:02:07;20.17;;;15.30;;
68976;SDS011;56029;52.568;13.588;2022-08-19T01:04:33;22.23;;;16.17;;
68976;SDS011;56029;52.568;13.588;2022-08-19T01:06:59;20.33;;;15.20;;
68976;SDS011;56029;52.568;13.588;2022-08-19T01:09:27;21.27;;;15.60;;
68976;SDS011;56029;52.568;13.588;2022-08-19T01:11:54;20.73;;;15.48;;
68976;SDS011;56029;52.568;13.588;2022-08-19T01:14:21;21.33;;;16.08;;
68976;SDS011;56029;52.568;13.588;2022-08-19T01:16:47;20.70;;;15.05;;
68976;SDS011;56029;52.568;13.588;2022-08-19T01:19:18;23.70;;;16.83;;
68976;SDS011;56029;52.568;13.588;2022-08-19T01:22:01;24.73;;;17.17;;
68976;SDS011;56029;52.568;13.588;2022-08-19T01:24:30;21.17;;;15.45;;
68976;SDS011;56029;52.568;13.588;2022-08-19T01:26:56;22.23;;;16.13;;
68976;SDS011;56029;52.568;13.588;2022-08-19T01:29:22;21.70;;;15.93;;
68976;SDS011;56029;52.568;13.588;2022-08-19T01:31:48;21.33;;;15.40;;
68976;SDS011;56029;52.568;13.588;2022-08-19T01:34:14;22.70;;;15.48;;
68976;SDS011;56029;52.568;13.588;2022-08-19T01:36:43;22.40;;;16.30;;
68976;SDS011;56029;52.568;13.588;2022-08-19T01:39:15;19.88;;;15.32;;
68976;SDS011;56029;52.568;13.588;2022-08-19T01:41:43;21.05;;;15.77;;
68976;SDS011;56029;52.568;13.588;2022-08-19T01:44:08;22.23;;;15.90;;
68976;SDS011;56029;52.568;13.588;2022-08-19T01:46:35;21.55;;;15.52;;
68976;SDS011;56029;52.568;13.588;2022-08-19T01:49:02;23.15;;;16.63;;
68976;SDS011;56029;52.568;13.588;2022-08-19T01:51:28;24.13;;;17.30;;
68976;SDS011;56029;52.568;13.588;2022-08-19T01:53:55;25.20;;;17.30;;
68976;SDS011;56029;52.568;13.588;2022-08-19T01:56:22;32.75;;;20.83;;
68976;SDS011;56029;52.568;13.588;2022-08-19T01:58:55;39.33;;;22.67;;
68976;SDS011;56029;52.568;13.588;2022-08-19T02:01:25;37.15;;;22.73;;
68976;SDS011;56029;52.568;13.588;2022-08-19T02:03:50;41.20;;;23.73;;
68976;SDS011;56029;52.568;13.588;2022-08-19T02:06:18;34.60;;;20.80;;
68976;SDS011;56029;52.568;13.588;2022-08-19T02:08:44;35.90;;;21.88;;
68976;SDS011;56029;52.568;13.588;2022-08-19T02:11:18;37.67;;;22.63;;
68976;SDS011;56029;52.568;13.588;2022-08-19T02:13:46;37.15;;;23.10;;
68976;SDS011;56029;52.568;13.588;2022-08-19T02:16:12;37.88;;;24.23;;
68976;SDS011;56029;52.568;13.588;2022-08-19T02:18:37;41.20;;;24.33;;
68976;SDS011;56029;52.568;13.588;2022-08-19T02:21:03;39.42;;;23.58;;
68976;SDS011;56029;52.568;13.588;2022-08-19T02:23:28;36.37;;;21.63;;
68976;SDS011;56029;52.568;13.588;2022-08-19T02:25:54;35.83;;;21.92;;
68976;SDS011;56029;52.568;13.588;2022-08-19T02:28:20;37.23;;;22.87;;
68976;SDS011;56029;52.568;13.588;2022-08-19T02:30:46;34.03;;;21.53;;
68976;SDS011;56029;52.568;13.588;2022-08-19T02:33:12;38.15;;;22.95;;
68976;SDS011;56029;52.568;13.588;2022-08-19T02:35:40;38.03;;;22.75;;
68976;SDS011;56029;52.568;13.588;2022-08-19T02:38:07;37.05;;;22.15;;
68976;SDS011;56029;52.568;13.588;2022-08-19T02:40:53;40.37;;;23.40;;
68976;SDS011;56029;52.568;13.588;2022-08-19T02:43:23;36.13;;;22.45;;
68976;SDS011;56029;52.568;13.588;2022-08-19T02:45:51;38.33;;;22.77;;
68976;SDS011;56029;52.568;13.588;2022-08-19T02:48:18;35.67;;;21.85;;
68976;SDS011;56029;52.568;13.588;2022-08-19T02:50:45;37.72;;;22.73;;
68976;SDS011;56029;52.568;13.588;2022-08-19T02:53:12;35.67;;;22.23;;
68976;SDS011;56029;52.568;13.588;2022-08-19T02:55:47;36.70;;;22.85;;
68976;SDS011;56029;52.568;13.588;2022-08-19T02:58:14;36.25;;;22.67;;
68976;SDS011;56029;52.568;13.588;2022-08-19T03:00:44;35.65;;;22.42;;
68976;SDS011;56029;52.568;13.588;2022-08-19T03:03:12;38.10;;;23.27;;
68976;SDS011;56029;52.568;13.588;2022-08-19T03:05:38;35.77;;;22.10;;
68976;SDS011;56029;52.568;13.588;2022-08-19T03:08:05;35.17;;;21.30;;
68976;SDS011;56029;52.568;13.588;2022-08-19T03:10:31;32.70;;;19.95;;
68976;SDS011;56029;52.568;13.588;2022-08-19T03:12:57;30.98;;;19.45;;
68976;SDS011;56029;52.568;13.588;2022-08-19T03:15:23;29.20;;;18.73;;
68976;SDS011;56029;52.568;13.588;2022-08-19T03:17:48;26.02;;;17.80;;
68976;SDS011;56029;52.568;13.588;2022-08-19T03:20:14;28.37;;;18.70;;
68976;SDS011;56029;52.568;13.588;2022-08-19T03:22:40;25.98;;;17.90;;
68976;SDS011;56029;52.568;13.588;2022-08-19T03:25:05;29.43;;;19.23;;
68976;SDS011;56029;52.568;13.588;2022-08-19T03:27:31;29.73;;;19.97;;
68976;SDS011;56029;52.568;13.588;2022-08-19T03:29:59;31.38;;;19.92;;
68976;SDS011;56029;52.568;13.588;2022-08-19T03:32:25;31.23;;;20.00;;
68976;SDS011;56029;52.568;13.588;2022-08-19T03:34:50;28.27;;;18.93;;
68976;SDS011;56029;52.568;13.588;2022-08-19T03:37:17;28.58;;;18.73;;
68976;SDS011;56029;52.568;13.588;2022-08-19T03:39:43;26.53;;;17.63;;
68976;SDS011;56029;52.568;13.588;2022-08-19T03:42:08;28.90;;;19.03;;
68976;SDS011;56029;52.568;13.588;2022-08-19T03:44:34;27.10;;;18.15;;
68976;SDS011;56029;52.568;13.588;2022-08-19T03:47:03;26.88;;;18.65;;
68976;SDS011;56029;52.568;13.588;2022-08-19T03:49:30;26.52;;;18.40;;
68976;SDS011;56029;52.568;13.588;2022-08-19T03:51:58;25.27;;;16.83;;
68976;SDS011;56029;52.568;13.588;2022-08-19T03:54:25;26.80;;;17.77;;
68976;SDS011;56029;52.568;13.588;2022-08-19T03:56:53;26.80;;;18.75;;
68976;SDS011;56029;52.568;13.588;2022-08-19T03:59:22;25.67;;;17.52;;
68976;SDS011;56029;52.568;13.588;2022-08-19T04:01:52;26.70;;;18.33;;
68976;SDS011;56029;52.568;13.588;2022-08-19T04:04:21;26.83;;;16.43;;
68976;SDS011;56029;52.568;13.588;2022-08-19T04:06:47;25.73;;;17.15;;
68976;SDS011;56029;52.568;13.588;2022-08-19T04:09:13;27.05;;;17.95;;
68976;SDS011;56029;52.568;13.588;2022-08-19T04:11:41;29.90;;;20.17;;
68976;SDS011;56029;52.568;13.588;2022-08-19T04:14:16;26.95;;;18.15;;
68976;SDS011;56029;52.568;13.588;2022-08-19T04:16:46;27.77;;;17.93;;
68976;SDS011;56029;52.568;13.588;2022-08-19T04:19:13;28.80;;;18.73;;
68976;SDS011;56029;52.568;13.588;2022-08-19T04:21:42;23.58;;;16.25;;
68976;SDS011;56029;52.568;13.588;2022-08-19T04:24:09;24.60;;;16.48;;
68976;SDS011;56029;52.568;13.588;2022-08-19T04:26:36;22.85;;;15.38;;
68976;SDS011;56029;52.568;13.588;2022-08-19T04:29:04;24.30;;;16.73;;
68976;SDS011;56029;52.568;13.588;2022-08-19T04:31:34;22.98;;;15.90;;
68976;SDS011;56029;52.568;13.588;2022-08-19T04:34:02;24.30;;;16.25;;
68976;SDS011;56029;52.568;13.588;2022-08-19T04:36:31;23.55;;;15.80;;
68976;SDS011;56029;52.568;13.588;2022-08-19T04:38:59;23.38;;;15.48;;
68976;SDS011;56029;52.568;13.588;2022-08-19T04:41:28;22.80;;;15.83;;
68976;SDS011;56029;52.568;13.588;2022-08-19T04:44:13;21.65;;;15.20;;
68976;SDS011;56029;52.568;13.588;2022-08-19T04:46:39;20.20;;;14.80;;
68976;SDS011;56029;52.568;13.588;2022-08-19T04:49:07;19.65;;;13.25;;
68976;SDS011;56029;52.568;13.588;2022-08-19T04:51:34;20.10;;;14.65;;
68976;SDS011;56029;52.568;13.588;2022-08-19T04:54:03;20.77;;;14.60;;
68976;SDS011;56029;52.568;13.588;2022-08-19T04:56:28;22.38;;;15.07;;
68976;SDS011;56029;52.568;13.588;2022-08-19T04:58:54;21.25;;;14.52;;
68976;SDS011;56029;52.568;13.588;2022-08-19T05:01:25;20.63;;;15.02;;
68976;SDS011;56029;52.568;13.588;2022-08-19T05:03:53;20.42;;;14.30;;
68976;SDS011;56029;52.568;13.588;2022-08-19T05:06:20;20.60;;;14.77;;
68976;SDS011;56029;52.568;13.588;2022-08-19T05:08:46;20.90;;;15.18;;
68976;SDS011;56029;52.568;13.588;2022-08-19T05:11:14;20.48;;;14.50;;
68976;SDS011;56029;52.568;13.588;2022-08-19T05:13:42;19.98;;;14.05;;
68976;SDS011;56029;52.568;13.588;2022-08-19T05:16:10;19.02;;;13.75;;
68976;SDS011;56029;52.568;13.588;2022-08-19T05:18:36;19.13;;;13.60;;
68976;SDS011;56029;52.568;13.588;2022-08-19T05:21:31;20.30;;;15.27;;
68976;SDS011;56029;52.568;13.588;2022-08-19T05:24:27;20.25;;;14.75;;
68976;SDS011;56029;52.568;13.588;2022-08-19T05:26:54;19.92;;;14.40;;
68976;SDS011;56029;52.568;13.588;2022-08-19T05:29:29;22.23;;;15.82;;
68976;SDS011;56029;52.568;13.588;2022-08-19T05:31:56;21.47;;;15.40;;
68976;SDS011;56029;52.568;13.588;2022-08-19T05:34:24;21.27;;;14.88;;
68976;SDS011;56029;52.568;13.588;2022-08-19T05:36:52;20.63;;;15.02;;
68976;SDS011;56029;52.568;13.588;2022-08-19T05:39:23;22.05;;;15.75;;
68976;SDS011;56029;52.568;13.588;2022-08-19T05:41:52;20.83;;;15.20;;
68976;SDS011;56029;52.568;13.588;2022-08-19T05:44:20;22.13;;;16.03;;
68976;SDS011;56029;52.568;13.588;2022-08-19T05:46:47;22.05;;;16.20;;
68976;SDS011;56029;52.568;13.588;2022-08-19T05:49:13;24.13;;;17.08;;
68976;SDS011;56029;52.568;13.588;2022-08-19T05:51:40;24.92;;;17.05;;
68976;SDS011;56029;52.568;13.588;2022-08-19T05:54:07;24.90;;;17.87;;
68976;SDS011;56029;52.568;13.588;2022-08-19T05:56:34;22.98;;;16.98;;
68976;SDS011;56029;52.568;13.588;2022-08-19T05:59:04;24.75;;;17.98;;
68976;SDS011;56029;52.568;13.588;2022-08-19T06:01:34;25.05;;;17.25;;
68976;SDS011;56029;52.568;13.588;2022-08-19T06:04:01;24.52;;;17.30;;
68976;SDS011;56029;52.568;13.588;2022-08-19T06:06:27;25.90;;;17.93;;
68976;SDS011;56029;52.568;13.588;2022-08-19T06:08:53;25.40;;;18.30;;
68976;SDS011;56029;52.568;13.588;2022-08-19T06:11:23;26.83;;;17.83;;
68976;SDS011;56029;52.568;13.588;2022-08-19T06:13:59;23.40;;;17.80;;
68976;SDS011;56029;52.568;13.588;2022-08-19T06:16:27;24.40;;;18.05;;
68976;SDS011;56029;52.568;13.588;2022-08-19T06:18:53;24.90;;;18.10;;
68976;SDS011;56029;52.568;13.588;2022-08-19T06:21:23;24.27;;;17.48;;
68976;SDS011;56029;52.568;13.588;2022-08-19T06:23:50;24.27;;;17.90;;
68976;SDS011;56029;52.568;13.588;2022-08-19T06:26:17;22.25;;;16.70;;
68976;SDS011;56029;52.568;13.588;2022-08-19T06:28:44;24.35;;;18.58;;
68976;SDS011;56029;52.568;13.588;2022-08-19T06:31:15;24.42;;;18.40;;
68976;SDS011;56029;52.568;13.588;2022-08-19T06:33:43;25.00;;;19.15;;
68976;SDS011;56029;52.568;13.588;2022-08-19T06:36:44;26.03;;;19.10;;
68976;SDS011;56029;52.568;13.588;2022-08-19T06:39:07;24.40;;;18.60;;
68976;SDS011;56029;52.568;13.588;2022-08-19T06:41:35;24.52;;;18.88;;
68976;SDS011;56029;52.568;13.588;2022-08-19T06:44:02;23.65;;;18.27;;
68976;SDS011;56029;52.568;13.588;2022-08-19T06:46:28;23.20;;;18.45;;
68976;SDS011;56029;52.568;13.588;2022-08-19T06:48:54;25.87;;;17.83;;
68976;SDS011;56029;52.568;13.588;2022-08-19T06:51:20;25.23;;;19.27;;
68976;SDS011;56029;52.568;13.588;2022-08-19T06:53:47;24.40;;;19.02;;
68976;SDS011;56029;52.568;13.588;2022-08-19T06:56:15;24.23;;;19.30;;
68976;SDS011;56029;52.568;13.588;2022-08-19T06:58:42;23.42;;;18.25;;
68976;SDS011;56029;52.568;13.588;2022-08-19T07:01:08;25.53;;;19.23;;
68976;SDS011;56029;52.568;13.588;2022-08-19T07:03:35;25.58;;;19.17;;
68976;SDS011;56029;52.568;13.588;2022-08-19T07:06:05;23.27;;;18.58;;
68976;SDS011;56029;52.568;13.588;2022-08-19T07:08:33;24.45;;;19.17;;
68976;SDS011;56029;52.568;13.588;2022-08-19T07:11:00;24.90;;;19.17;;
68976;SDS011;56029;52.568;13.588;2022-08-19T07:13:26;24.80;;;18.85;;
68976;SDS011;56029;52.568;13.588;2022-08-19T07:15:51;24.43;;;18.57;;
68976;SDS011;56029;52.568;13.588;2022-08-19T07:18:18;24.25;;;18.35;;
68976;SDS011;56029;52.568;13.588;2022-08-19T07:20:45;23.35;;;18.35;;
68976;SDS011;56029;52.568;13.588;2022-08-19T07:23:11;24.07;;;18.03;;
68976;SDS011;56029;52.568;13.588;2022-08-19T07:25:37;24.40;;;18.50;;
68976;SDS011;56029;52.568;13.588;2022-08-19T07:28:03;23.95;;;19.55;;
68976;SDS011;56029;52.568;13.588;2022-08-19T07:30:29;24.42;;;18.95;;
68976;SDS011;56029;52.568;13.588;2022-08-19T07:32:55;25.87;;;18.83;;
68976;SDS011;56029;52.568;13.588;2022-08-19T07:35:21;26.13;;;19.23;;
68976;SDS011;56029;52.568;13.588;2022-08-19T07:37:48;24.48;;;18.90;;
68976;SDS011;56029;52.568;13.588;2022-08-19T07:40:14;27.08;;;20.58;;
68976;SDS011;56029;52.568;13.588;2022-08-19T07:42:40;24.17;;;19.30;;
68976;SDS011;56029;52.568;13.588;2022-08-19T07:45:06;25.03;;;19.60;;
68976;SDS011;56029;52.568;13.588;2022-08-19T07:47:32;24.27;;;19.70;;
68976;SDS011;56029;52.568;13.588;2022-08-19T07:49:58;25.95;;;20.02;;
68976;SDS011;56029;52.568;13.588;2022-08-19T07:52:23;27.37;;;19.67;;
68976;SDS011;56029;52.568;13.588;2022-08-19T07:54:49;26.93;;;19.43;;
68976;SDS011;56029;52.568;13.588;2022-08-19T07:57:15;24.47;;;19.03;;
68976;SDS011;56029;52.568;13.588;2022-08-19T07:59:41;23.38;;;18.50;;
68976;SDS011;56029;52.568;13.588;2022-08-19T08:02:07;25.23;;;19.45;;
68976;SDS011;56029;52.568;13.588;2022-08-19T08:04:33;26.05;;;19.63;;
68976;SDS011;56029;52.568;13.588;2022-08-19T08:07:18;25.63;;;18.80;;
68976;SDS011;56029;52.568;13.588;2022-08-19T08:10:03;24.00;;;18.13;;
68976;SDS011;56029;52.568;13.588;2022-08-19T08:12:33;25.02;;;19.02;;
68976;SDS011;56029;52.568;13.588;2022-08-19T08:15:02;26.42;;;19.15;;
68976;SDS011;56029;52.568;13.588;2022-08-19T08:17:31;22.27;;;18.40;;
68976;SDS011;56029;52.568;13.588;2022-08-19T08:19:57;23.43;;;18.27;;
68976;SDS011;56029;52.568;13.588;2022-08-19T08:22:23;23.60;;;18.05;;
68976;SDS011;56029;52.568;13.588;2022-08-19T08:25:25;23.20;;;17.83;;
68976;SDS011;56029;52.568;13.588;2022-08-19T08:27:50;25.43;;;18.30;;
68976;SDS011;56029;52.568;13.588;2022-08-19T08:30:18;23.55;;;18.00;;
68976;SDS011;56029;52.568;13.588;2022-08-19T08:32:47;22.70;;;17.63;;
68976;SDS011;56029;52.568;13.588;2022-08-19T08:35:15;22.48;;;17.30;;
68976;SDS011;56029;52.568;13.588;2022-08-19T08:37:44;23.63;;;17.80;;
68976;SDS011;56029;52.568;13.588;2022-08-19T08:40:16;23.20;;;18.25;;
68976;SDS011;56029;52.568;13.588;2022-08-19T08:42:49;22.20;;;16.95;;
68976;SDS011;56029;52.568;13.588;2022-08-19T08:45:23;22.63;;;17.73;;
68976;SDS011;56029;52.568;13.588;2022-08-19T08:47:49;23.20;;;18.17;;
68976;SDS011;56029;52.568;13.588;2022-08-19T08:50:38;23.08;;;17.85;;
68976;SDS011;56029;52.568;13.588;2022-08-19T08:53:07;20.50;;;15.82;;
68976;SDS011;56029;52.568;13.588;2022-08-19T08:55:34;21.67;;;17.15;;
68976;SDS011;56029;52.568;13.588;2022-08-19T08:58:06;24.83;;;17.67;;
68976;SDS011;56029;52.568;13.588;2022-08-19T09:00:39;21.10;;;16.85;;
68976;SDS011;56029;52.568;13.588;2022-08-19T09:03:10;20.23;;;15.90;;
68976;SDS011;56029;52.568;13.588;2022-08-19T09:06:04;20.45;;;15.82;;
68976;SDS011;56029;52.568;13.588;2022-08-19T09:08:50;21.37;;;16.43;;
68976;SDS011;56029;52.568;13.588;2022-08-19T09:14:19;22.02;;;17.33;;
68976;SDS011;56029;52.568;13.588;2022-08-19T09:16:48;22.38;;;17.15;;
68976;SDS011;56029;52.568;13.588;2022-08-19T09:19:15;20.58;;;16.65;;
68976;SDS011;56029;52.568;13.588;2022-08-19T09:21:42;21.57;;;17.20;;
68976;SDS011;56029;52.568;13.588;2022-08-19T09:24:08;22.75;;;17.98;;
68976;SDS011;56029;52.568;13.588;2022-08-19T09:26:34;22.67;;;18.20;;
68976;SDS011;56029;52.568;13.588;2022-08-19T09:29:00;20.88;;;16.85;;
68976;SDS011;56029;52.568;13.588;2022-08-19T09:31:30;21.80;;;18.57;;
68976;SDS011;56029;52.568;13.588;2022-08-19T09:33:58;22.45;;;18.38;;
68976;SDS011;56029;52.568;13.588;2022-08-19T09:36:25;22.02;;;17.42;;
68976;SDS011;56029;52.568;13.588;2022-08-19T09:38:54;21.15;;;17.42;;
68976;SDS011;56029;52.568;13.588;2022-08-19T09:41:22;19.30;;;15.23;;
68976;SDS011;56029;52.568;13.588;2022-08-19T09:43:49;17.90;;;15.00;;
68976;SDS011;56029;52.568;13.588;2022-08-19T09:46:21;19.40;;;15.27;;
68976;SDS011;56029;52.568;13.588;2022-08-19T09:48:49;19.98;;;16.48;;
68976;SDS011;56029;52.568;13.588;2022-08-19T09:51:17;22.30;;;17.70;;
68976;SDS011;56029;52.568;13.588;2022-08-19T09:53:45;21.67;;;18.25;;
68976;SDS011;56029;52.568;13.588;2022-08-19T09:56:11;21.40;;;18.57;;
68976;SDS011;56029;52.568;13.588;2022-08-19T09:58:38;22.67;;;18.48;;
68976;SDS011;56029;52.568;13.588;2022-08-19T10:01:05;22.45;;;18.23;;
68976;SDS011;56029;52.568;13.588;2022-08-19T10:03:32;22.17;;;18.60;;
68976;SDS011;56029;52.568;13.588;2022-08-19T10:06:00;23.65;;;18.25;;
68976;SDS011;56029;52.568;13.588;2022-08-19T10:08:28;23.13;;;18.10;;
68976;SDS011;56029;52.568;13.588;2022-08-19T10:10:59;21.60;;;17.15;;
68976;SDS011;56029;52.568;13.588;2022-08-19T10:13:27;21.88;;;18.15;;
68976;SDS011;56029;52.568;13.588;2022-08-19T10:15:55;23.73;;;17.75;;
68976;SDS011;56029;52.568;13.588;2022-08-19T10:18:23;20.60;;;16.95;;
68976;SDS011;56029;52.568;13.588;2022-08-19T10:20:50;20.10;;;16.17;;
68976;SDS011;56029;52.568;13.588;2022-08-19T10:23:18;20.58;;;16.25;;
68976;SDS011;56029;52.568;13.588;2022-08-19T10:25:45;20.35;;;16.23;;
68976;SDS011;56029;52.568;13.588;2022-08-19T10:28:11;20.77;;;15.87;;
68976;SDS011;56029;52.568;13.588;2022-08-19T10:30:38;19.90;;;16.23;;
68976;SDS011;56029;52.568;13.588;2022-08-19T10:33:04;20.48;;;16.92;;
68976;SDS011;56029;52.568;13.588;2022-08-19T10:35:31;20.58;;;17.08;;
68976;SDS011;56029;52.568;13.588;2022-08-19T10:37:57;21.20;;;16.73;;
68976;SDS011;56029;52.568;13.588;2022-08-19T10:40:27;19.40;;;16.30;;
68976;SDS011;56029;52.568;13.588;2022-08-19T10:42:53;17.13;;;14.32;;
68976;SDS011;56029;52.568;13.588;2022-08-19T10:45:21;18.15;;;14.80;;
68976;SDS011;56029;52.568;13.588;2022-08-19T10:47:52;18.55;;;14.85;;
68976;SDS011;56029;52.568;13.588;2022-08-19T10:50:18;17.03;;;14.00;;
68976;SDS011;56029;52.568;13.588;2022-08-19T10:53:03;17.52;;;14.05;;
68976;SDS011;56029;52.568;13.588;2022-08-19T10:55:30;18.50;;;14.57;;
68976;SDS011;56029;52.568;13.588;2022-08-19T10:58:16;18.35;;;14.43;;
68976;SDS011;56029;52.568;13.588;2022-08-19T11:00:54;17.65;;;14.70;;
68976;SDS011;56029;52.568;13.588;2022-08-19T11:03:22;17.20;;;14.23;;
68976;SDS011;56029;52.568;13.588;2022-08-19T11:05:59;18.13;;;14.48;;
68976;SDS011;56029;52.568;13.588;2022-08-19T11:08:29;20.40;;;15.63;;
68976;SDS011;56029;52.568;13.588;2022-08-19T11:10:58;19.30;;;15.77;;
68976;SDS011;56029;52.568;13.588;2022-08-19T11:13:26;18.73;;;14.90;;
68976;SDS011;56029;52.568;13.588;2022-08-19T11:16:00;17.47;;;14.80;;
68976;SDS011;56029;52.568;13.588;2022-08-19T11:18:29;17.25;;;14.55;;
68976;SDS011;56029;52.568;13.588;2022-08-19T11:20:54;19.25;;;14.80;;
68976;SDS011;56029;52.568;13.588;2022-08-19T11:23:30;18.73;;;14.82;;
68976;SDS011;56029;52.568;13.588;2022-08-19T11:25:56;17.70;;;14.67;;
68976;SDS011;56029;52.568;13.588;2022-08-19T11:28:23;17.33;;;14.13;;
68976;SDS011;56029;52.568;13.588;2022-08-19T11:30:48;20.53;;;14.43;;
68976;SDS011;56029;52.568;13.588;2022-08-19T11:33:14;17.45;;;14.32;;
68976;SDS011;56029;52.568;13.588;2022-08-19T11:35:39;17.70;;;14.07;;
68976;SDS011;56029;52.568;13.588;2022-08-19T11:38:06;19.08;;;14.57;;
68976;SDS011;56029;52.568;13.588;2022-08-19T11:40:32;16.67;;;13.83;;
68976;SDS011;56029;52.568;13.588;2022-08-19T11:42:58;17.75;;;14.25;;
68976;SDS011;56029;52.568;13.588;2022-08-19T11:45:24;18.03;;;15.40;;
68976;SDS011;56029;52.568;13.588;2022-08-19T11:47:52;18.90;;;14.73;;
68976;SDS011;56029;52.568;13.588;2022-08-19T11:50:18;19.50;;;15.30;;
68976;SDS011;56029;52.568;13.588;2022-08-19T11:52:43;18.00;;;14.57;;
68976;SDS011;56029;52.568;13.588;2022-08-19T11:55:11;18.93;;;15.80;;
68976;SDS011;56029;52.568;13.588;2022-08-19T11:57:37;18.55;;;15.13;;
68976;SDS011;56029;52.568;13.588;2022-08-19T12:00:03;19.20;;;14.73;;
68976;SDS011;56029;52.568;13.588;2022-08-19T12:02:31;17.87;;;14.93;;
68976;SDS011;56029;52.568;13.588;2022-08-19T12:04:57;19.02;;;15.27;;
68976;SDS011;56029;52.568;13.588;2022-08-19T12:07:22;18.60;;;13.80;;
68976;SDS011;56029;52.568;13.588;2022-08-19T12:09:50;18.02;;;14.40;;
68976;SDS011;56029;52.568;13.588;2022-08-19T12:12:15;16.80;;;14.15;;
68976;SDS011;56029;52.568;13.588;2022-08-19T12:14:41;17.47;;;14.30;;
68976;SDS011;56029;52.568;13.588;2022-08-19T12:17:07;16.92;;;14.57;;
68976;SDS011;56029;52.568;13.588;2022-08-19T12:19:35;21.02;;;13.57;;
68976;SDS011;56029;52.568;13.588;2022-08-19T12:22:01;17.13;;;13.80;;
68976;SDS011;56029;52.568;13.588;2022-08-19T12:24:31;17.13;;;13.05;;
68976;SDS011;56029;52.568;13.588;2022-08-19T12:26:57;15.23;;;12.45;;
68976;SDS011;56029;52.568;13.588;2022-08-19T12:29:26;16.35;;;13.13;;
68976;SDS011;56029;52.568;13.588;2022-08-19T12:31:55;16.50;;;13.43;;
68976;SDS011;56029;52.568;13.588;2022-08-19T12:34:30;15.93;;;12.83;;
68976;SDS011;56029;52.568;13.588;2022-08-19T12:36:58;16.13;;;12.93;;
68976;SDS011;56029;52.568;13.588;2022-08-19T12:39:25;15.73;;;12.73;;
68976;SDS011;56029;52.568;13.588;2022-08-19T12:41:51;15.20;;;12.43;;
68976;SDS011;56029;52.568;13.588;2022-08-19T12:44:17;16.45;;;13.00;;
68976;SDS011;56029;52.568;13.588;2022-08-19T12:46:43;15.70;;;12.63;;
68976;SDS011;56029;52.568;13.588;2022-08-19T12:49:08;15.35;;;12.50;;
68976;SDS011;56029;52.568;13.588;2022-08-19T12:51:35;15.75;;;12.57;;
68976;SDS011;56029;52.568;13.588;2022-08-19T12:54:01;17.07;;;13.40;;
68976;SDS011;56029;52.568;13.588;2022-08-19T12:56:27;17.23;;;13.48;;
68976;SDS011;56029;52.568;13.588;2022-08-19T12:58:53;16.52;;;13.95;;
68976;SDS011;56029;52.568;13.588;2022-08-19T13:01:19;15.45;;;13.23;;
68976;SDS011;56029;52.568;13.588;2022-08-19T13:03:45;16.50;;;13.13;;
68976;SDS011;56029;52.568;13.588;2022-08-19T13:06:11;17.05;;;13.38;;
68976;SDS011;56029;52.568;13.588;2022-08-19T13:08:37;17.05;;;14.32;;
68976;SDS011;56029;52.568;13.588;2022-08-19T13:11:06;16.05;;;13.27;;
68976;SDS011;56029;52.568;13.588;2022-08-19T13:13:37;15.67;;;13.40;;
68976;SDS011;56029;52.568;13.588;2022-08-19T13:16:06;16.15;;;13.38;;
68976;SDS011;56029;52.568;13.588;2022-08-19T13:18:33;18.23;;;14.40;;
68976;SDS011;56029;52.568;13.588;2022-08-19T13:21:02;17.25;;;13.65;;
68976;SDS011;56029;52.568;13.588;2022-08-19T13:23:29;17.17;;;13.57;;
68976;SDS011;56029;52.568;13.588;2022-08-19T13:25:56;17.08;;;14.63;;
68976;SDS011;56029;52.568;13.588;2022-08-19T13:28:23;16.60;;;14.20;;
68976;SDS011;56029;52.568;13.588;2022-08-19T13:30:49;16.23;;;14.07;;
68976;SDS011;56029;52.568;13.588;2022-08-19T13:33:46;17.23;;;13.97;;
68976;SDS011;56029;52.568;13.588;2022-08-19T13:36:12;16.05;;;13.88;;
68976;SDS011;56029;52.568;13.588;2022-08-19T13:38:37;16.63;;;13.80;;
68976;SDS011;56029;52.568;13.588;2022-08-19T13:41:04;16.03;;;14.03;;
68976;SDS011;56029;52.568;13.588;2022-08-19T13:43:30;16.13;;;13.80;;
68976;SDS011;56029;52.568;13.588;2022-08-19T13:45:55;16.70;;;13.80;;
68976;SDS011;56029;52.568;13.588;2022-08-19T13:48:22;18.00;;;14.45;;
68976;SDS011;56029;52.568;13.588;2022-08-19T13:50:48;16.40;;;14.15;;
68976;SDS011;56029;52.568;13.588;2022-08-19T13:53:14;15.97;;;13.73;;
68976;SDS011;56029;52.568;13.588;2022-08-19T13:55:41;17.00;;;13.48;;
68976;SDS011;56029;52.568;13.588;2022-08-19T13:58:08;17.02;;;13.85;;
68976;SDS011;56029;52.568;13.588;2022-08-19T14:00:36;15.43;;;12.87;;
68976;SDS011;56029;52.568;13.588;2022-08-19T14:03:05;16.25;;;13.50;;
68976;SDS011;56029;52.568;13.588;2022-08-19T14:05:31;15.90;;;14.15;;
68976;SDS011;56029;52.568;13.588;2022-08-19T14:07:57;16.75;;;13.40;;
68976;SDS011;56029;52.568;13.588;2022-08-19T14:10:24;15.23;;;13.60;;
68976;SDS011;56029;52.568;13.588;2022-08-19T14:12:52;16.03;;;13.60;;
68976;SDS011;56029;52.568;13.588;2022-08-19T14:15:20;16.27;;;13.48;;
68976;SDS011;56029;52.568;13.588;2022-08-19T14:17:46;17.65;;;13.68;;